createdAt,value
2018-05-07T05:58:33.460Z,27.90
2018-05-07T06:01:05.350Z,27.90
2018-05-07T06:03:37.290Z,27.90
2018-05-07T06:06:09.631Z,27.90
2018-05-07T06:08:41.537Z,28.00
2018-05-07T06:11:13.414Z,28.30
2018-05-07T06:13:45.298Z,28.60
2018-05-07T06:16:17.962Z,28.50
2018-05-07T06:18:50.606Z,28.30
2018-05-07T06:21:22.517Z,28.20
2018-05-07T06:23:55.157Z,28.40
2018-05-07T06:26:27.050Z,28.40
2018-05-07T06:29:00.057Z,28.60
2018-05-07T06:31:31.964Z,28.60
2018-05-07T06:34:03.830Z,28.50
2018-05-07T06:36:36.937Z,28.30
2018-05-07T06:39:08.805Z,28.70
2018-05-07T06:41:41.489Z,29.20
2018-05-07T06:44:14.221Z,29.70
2018-05-07T06:46:46.111Z,29.60
2018-05-07T06:49:18.763Z,29.60
2018-05-07T06:51:50.676Z,29.60
2018-05-07T06:54:23.312Z,29.60
2018-05-07T06:56:55.292Z,29.50
2018-05-07T06:59:28.335Z,29.80
2018-05-07T07:02:00.237Z,29.90
2018-05-07T07:04:32.885Z,29.50
2018-05-07T07:07:04.773Z,29.50
2018-05-07T07:09:36.637Z,29.10
2018-05-07T07:12:08.527Z,29.10
2018-05-07T07:14:40.697Z,28.90
2018-05-07T07:17:12.577Z,29.10
2018-05-07T07:19:44.445Z,29.00
2018-05-07T07:22:16.353Z,29.50
2018-05-07T07:24:49.005Z,30.30
2018-05-07T07:27:20.910Z,30.30
2018-05-07T07:29:52.813Z,30.30
2018-05-07T07:32:24.705Z,30.50
2018-05-07T07:34:56.582Z,30.50
2018-05-07T07:37:29.234Z,30.60
2018-05-07T07:40:01.107Z,30.60
2018-05-07T07:42:34.014Z,30.60
2018-05-07T07:45:05.885Z,30.60
2018-05-07T07:47:37.770Z,30.80
2018-05-07T07:50:09.656Z,31.30
2018-05-07T07:52:41.542Z,31.10
2018-05-07T07:55:14.438Z,31.10
2018-05-07T07:57:46.338Z,31.10
2018-05-07T08:00:18.211Z,31.10
2018-05-07T08:02:50.106Z,30.90
2018-05-07T08:05:22.759Z,30.20
2018-05-07T08:07:54.640Z,30.20
2018-05-07T08:10:27.543Z,30.00
2018-05-07T08:12:59.442Z,30.00
2018-05-07T08:15:31.571Z,29.90
2018-05-07T08:18:03.482Z,29.70
2018-05-07T08:20:35.356Z,29.70
2018-05-07T08:23:07.248Z,29.50
2018-05-07T08:25:39.129Z,29.40
2018-05-07T08:28:11.018Z,29.30
2018-05-07T08:30:42.905Z,29.30
2018-05-07T08:33:15.097Z,29.40
2018-05-07T08:35:46.978Z,29.60
2018-05-07T08:38:18.868Z,29.80
2018-05-07T08:40:50.741Z,30.00
2018-05-07T08:43:22.631Z,29.80
2018-05-07T08:45:55.521Z,29.60
2018-05-07T08:48:27.407Z,29.60
2018-05-07T08:50:59.353Z,29.60
2018-05-07T08:53:31.409Z,29.90
2018-05-07T08:56:03.577Z,30.10
2018-05-07T08:58:35.753Z,30.20
2018-05-07T09:01:07.625Z,30.50
2018-05-07T09:03:39.521Z,30.40
2018-05-07T09:06:11.393Z,30.40
2018-05-07T09:08:43.278Z,30.50
2018-05-07T09:11:15.154Z,30.70
2018-05-07T09:13:47.037Z,30.80
2018-05-07T09:16:18.913Z,30.60
2018-05-07T09:18:51.958Z,30.40
2018-05-07T09:21:24.118Z,30.20
2018-05-07T09:23:56.014Z,30.00
2018-05-07T09:26:27.877Z,29.80
2018-05-07T09:28:59.766Z,29.60
2018-05-07T09:31:31.657Z,29.20
2018-05-07T09:34:04.335Z,28.60
2018-05-07T09:36:37.013Z,28.70
2018-05-07T09:39:09.668Z,28.90
2018-05-07T09:41:41.538Z,28.90
2018-05-07T09:44:14.437Z,29.00
2018-05-07T09:46:46.301Z,29.00
2018-05-07T09:49:18.190Z,29.30
2018-05-07T09:51:50.065Z,29.50
2018-05-07T09:54:21.950Z,29.70
2018-05-07T09:56:54.837Z,29.90
2018-05-07T09:59:26.706Z,29.80
2018-05-07T10:01:59.337Z,30.00
2018-05-07T10:04:31.236Z,30.00
2018-05-07T10:07:03.114Z,30.10
2018-05-07T10:09:35.769Z,29.70
2018-05-07T10:12:07.657Z,29.70
2018-05-07T10:14:40.313Z,30.00
2018-05-07T10:17:12.503Z,29.90
2018-05-07T10:19:44.394Z,30.00
2018-05-07T10:22:16.271Z,29.80
2018-05-07T10:24:48.168Z,29.80
2018-05-07T10:27:20.807Z,30.40
2018-05-07T10:29:52.755Z,30.30
2018-05-07T10:32:25.406Z,30.10
2018-05-07T10:34:57.287Z,30.10
2018-05-07T10:37:29.165Z,29.60
2018-05-07T10:40:01.048Z,29.30
2018-05-07T10:42:32.925Z,29.50
2018-05-07T10:45:05.577Z,30.00
2018-05-07T10:47:37.482Z,30.00
2018-05-07T10:50:09.418Z,30.10
2018-05-07T10:52:42.076Z,30.30
2018-05-07T10:55:13.962Z,30.30
2018-05-07T10:57:46.619Z,29.30
2018-05-07T11:00:18.567Z,29.20
2018-05-07T11:02:51.208Z,27.40
2018-05-07T11:05:23.103Z,27.40
2018-05-07T11:07:55.222Z,26.80
2018-05-07T11:10:27.113Z,26.30
2018-05-07T11:12:59.006Z,25.90
2018-05-07T11:15:30.894Z,25.40
2018-05-07T11:18:03.539Z,25.20
2018-05-07T11:20:35.749Z,25.20
2018-05-07T11:23:07.917Z,25.20
2018-05-07T11:25:39.825Z,25.20
2018-05-07T11:28:11.726Z,25.10
2018-05-07T11:30:44.410Z,24.80
2018-05-07T11:33:17.046Z,24.70
2018-05-07T11:35:48.937Z,24.70
2018-05-07T11:38:21.577Z,24.80
2018-05-07T11:40:53.470Z,24.80
2018-05-07T11:43:26.121Z,24.80
2018-05-07T11:45:58.010Z,24.80
2018-05-07T11:48:30.662Z,25.00
2018-05-07T11:51:02.546Z,25.00
2018-05-07T11:53:34.737Z,25.10
2018-05-07T11:58:44.912Z,25.00
2018-05-07T12:01:17.080Z,25.00
2018-05-07T12:03:48.968Z,25.00
2018-05-07T12:06:20.853Z,25.00
2018-05-07T12:08:52.971Z,25.00
2018-05-07T12:11:24.857Z,25.10
2018-05-07T12:13:56.725Z,25.10
2018-05-07T12:16:28.618Z,25.00
2018-05-07T12:19:00.498Z,24.90
2018-05-07T12:21:32.394Z,24.80
2018-05-07T12:24:04.268Z,24.70
2018-05-07T12:26:36.155Z,24.70
2018-05-07T12:29:08.149Z,24.90
2018-05-07T12:31:40.170Z,24.90
2018-05-07T12:34:11.922Z,24.90
2018-05-07T12:36:43.901Z,24.80
2018-05-07T12:39:15.797Z,24.90
2018-05-07T12:41:47.681Z,24.90
2018-05-07T12:44:19.597Z,24.80
2018-05-07T12:46:52.283Z,24.90
2018-05-07T12:49:24.151Z,24.90
2018-05-07T12:51:56.022Z,24.90
2018-05-07T12:54:27.936Z,25.00
2018-05-07T12:56:59.809Z,25.00
2018-05-07T12:59:32.814Z,25.10
2018-05-07T13:02:04.696Z,25.10
2018-05-07T13:04:36.683Z,25.10
2018-05-07T13:07:08.671Z,25.10
2018-05-07T13:09:40.565Z,25.10
2018-05-07T13:12:12.442Z,25.10
2018-05-07T13:14:44.590Z,25.00
2018-05-07T13:17:16.524Z,25.00
2018-05-07T13:19:48.389Z,25.10
2018-05-07T13:22:21.070Z,25.10
2018-05-07T13:24:53.761Z,25.10
2018-05-07T13:27:25.643Z,25.10
2018-05-07T13:29:57.647Z,25.10
2018-05-07T13:32:29.608Z,25.10
2018-05-07T13:35:01.525Z,25.10
2018-05-07T13:37:33.472Z,25.20
2018-05-07T13:40:06.139Z,25.20
2018-05-07T13:42:39.034Z,25.20
2018-05-07T13:45:10.937Z,25.20
2018-05-07T13:47:42.821Z,25.20
2018-05-07T13:50:14.744Z,25.20
2018-05-07T13:52:46.614Z,25.20
2018-05-07T13:55:19.673Z,25.20
2018-05-07T13:57:51.561Z,25.30
2018-05-07T14:00:23.483Z,25.30
2018-05-07T14:02:55.380Z,25.30
2018-05-07T14:05:27.274Z,25.40
2018-05-07T14:07:59.151Z,25.40
2018-05-07T14:10:31.844Z,25.40
2018-05-07T14:13:04.492Z,25.40
2018-05-07T14:15:36.406Z,25.40
2018-05-07T14:18:08.291Z,25.40
2018-05-07T14:20:40.431Z,25.40
2018-05-07T14:23:12.585Z,25.30
2018-05-07T14:25:44.482Z,25.30
2018-05-07T14:28:16.369Z,25.20
2018-05-07T14:30:48.360Z,25.20
2018-05-07T14:33:21.064Z,25.10
2018-05-07T14:35:52.953Z,25.10
2018-05-07T14:38:24.831Z,25.20
2018-05-07T14:40:56.730Z,25.20
2018-05-07T14:43:28.606Z,25.20
2018-05-07T14:46:01.299Z,25.30
2018-05-07T14:48:33.210Z,25.20
2018-05-07T14:51:05.861Z,25.20
2018-05-07T14:53:37.740Z,25.20
2018-05-07T14:56:10.389Z,25.30
2018-05-07T14:58:42.398Z,25.20
2018-05-07T15:01:14.249Z,25.40
2018-05-07T15:03:46.887Z,25.50
2018-05-07T15:06:18.785Z,25.50
2018-05-07T15:08:51.442Z,25.60
2018-05-07T15:11:23.338Z,25.60
2018-05-07T15:14:07.294Z,25.60
2018-05-07T15:16:39.946Z,25.50
2018-05-07T15:19:12.846Z,25.50
2018-05-07T15:21:44.726Z,25.40
2018-05-07T15:24:16.597Z,25.50
2018-05-07T15:26:48.482Z,25.50
2018-05-07T15:29:20.474Z,25.60
2018-05-07T15:31:53.025Z,25.60
2018-05-07T15:34:24.905Z,25.60
2018-05-07T15:36:57.590Z,25.50
2018-05-07T15:39:30.238Z,25.50
2018-05-07T15:42:02.125Z,25.50
2018-05-07T15:44:34.765Z,25.50
2018-05-07T15:47:06.654Z,25.50
2018-05-07T15:49:38.845Z,25.50
2018-05-07T15:52:10.941Z,25.50
2018-05-07T15:54:43.080Z,25.50
2018-05-07T15:57:14.986Z,25.60
2018-05-07T15:59:47.101Z,25.60
2018-05-07T16:02:18.986Z,25.60
2018-05-07T16:04:50.873Z,25.60
2018-05-07T16:07:22.988Z,25.60
2018-05-07T16:09:54.874Z,25.50
2018-05-07T16:12:26.762Z,25.40
2018-05-07T16:14:58.692Z,25.40
2018-05-07T16:17:30.526Z,25.50
2018-05-07T16:20:02.429Z,25.40
2018-05-07T16:22:34.329Z,25.40
2018-05-07T16:25:07.077Z,25.40
2018-05-07T16:27:38.974Z,25.40
2018-05-07T16:30:11.618Z,25.50
2018-05-07T16:32:43.510Z,25.50
2018-05-07T16:35:16.420Z,25.60
2018-05-07T16:37:48.590Z,25.60
2018-05-07T16:40:20.476Z,25.60
2018-05-07T16:42:52.453Z,25.60
2018-05-07T16:45:25.030Z,25.50
2018-05-07T16:47:56.922Z,25.50
2018-05-07T16:50:29.561Z,25.50
2018-05-07T16:53:01.526Z,25.50
2018-05-07T16:55:33.401Z,25.50
2018-05-07T16:58:05.400Z,25.40
2018-05-07T17:00:37.177Z,25.40
2018-05-07T17:03:09.061Z,25.40
2018-05-07T17:05:41.185Z,25.40
2018-05-07T17:08:13.122Z,25.40
2018-05-07T17:10:44.957Z,25.40
2018-05-07T17:13:16.858Z,25.40
2018-05-07T17:15:49.513Z,25.40
2018-05-07T17:18:22.177Z,25.40
2018-05-07T17:20:54.076Z,25.40
2018-05-07T17:23:26.731Z,25.40
2018-05-07T17:25:58.619Z,25.30
2018-05-07T17:28:32.932Z,25.20
2018-05-07T17:31:04.818Z,25.20
2018-05-07T17:33:37.059Z,25.20
2018-05-07T17:36:08.846Z,25.10
2018-05-07T17:38:40.782Z,25.10
2018-05-07T17:41:13.424Z,25.10
2018-05-07T17:43:45.318Z,25.00
2018-05-07T17:49:26.422Z,25.00
2018-05-07T17:51:59.069Z,24.90
2018-05-07T17:54:30.974Z,24.90
2018-05-07T17:57:02.841Z,24.90
2018-05-07T17:59:34.717Z,24.90
2018-05-07T18:02:06.654Z,24.80
2018-05-07T18:04:38.620Z,24.80
2018-05-07T18:07:10.661Z,24.70
2018-05-07T18:09:43.343Z,24.60
2018-05-07T18:12:15.974Z,24.60
2018-05-07T18:14:47.895Z,24.60
2018-05-07T18:17:19.802Z,24.50
2018-05-07T18:19:51.770Z,24.40
2018-05-07T18:22:23.710Z,24.40
2018-05-07T18:24:55.610Z,24.30
2018-05-07T18:27:27.494Z,24.30
2018-05-07T18:29:59.425Z,24.30
2018-05-07T18:32:31.305Z,24.20
2018-05-07T18:35:04.095Z,24.20
2018-05-07T18:37:36.022Z,24.10
2018-05-07T18:40:07.974Z,24.10
2018-05-07T18:42:39.917Z,24.10
2018-05-07T18:45:11.857Z,24.00
2018-05-07T18:47:44.094Z,23.90
2018-05-07T18:50:16.752Z,23.80
2018-05-07T18:52:48.621Z,23.70
2018-05-07T18:55:20.523Z,23.70
2018-05-07T18:57:52.472Z,23.60
2018-05-07T19:00:24.567Z,23.50
2018-05-07T19:02:58.173Z,23.40
2018-05-07T19:05:30.075Z,23.40
2018-05-07T19:08:02.720Z,23.40
2018-05-07T19:10:34.626Z,23.30
2018-05-07T19:13:07.320Z,23.20
2018-05-07T19:15:39.217Z,23.20
2018-05-07T19:18:11.103Z,23.20
2018-05-07T19:20:42.994Z,23.10
2018-05-07T19:23:14.874Z,23.00
2018-05-07T19:25:46.762Z,22.90
2018-05-07T19:28:18.650Z,22.90
2018-05-07T19:30:51.335Z,22.70
2018-05-07T19:33:24.237Z,22.60
2018-05-07T19:35:56.128Z,22.60
2018-05-07T19:38:28.265Z,22.60
2018-05-07T19:41:00.214Z,22.50
2018-05-07T19:43:33.110Z,22.50
2018-05-07T19:46:05.001Z,22.50
2018-05-07T19:48:36.890Z,22.40
2018-05-07T19:51:09.097Z,22.30
2018-05-07T19:53:40.970Z,22.30
2018-05-07T19:56:12.909Z,22.30
2018-05-07T19:58:45.561Z,22.30
2018-05-07T20:01:17.455Z,22.20
2018-05-07T20:03:50.165Z,22.20
2018-05-07T20:06:22.053Z,22.20
2018-05-07T20:08:54.952Z,22.10
2018-05-07T20:11:26.944Z,22.10
2018-05-07T20:13:58.814Z,22.00
2018-05-07T20:16:30.697Z,21.90
2018-05-07T20:19:02.830Z,21.90
2018-05-07T20:21:34.726Z,21.90
2018-05-07T20:24:06.602Z,21.90
2018-05-07T20:26:38.501Z,21.90
2018-05-07T20:29:11.158Z,21.80
2018-05-07T20:31:43.806Z,21.80
2018-05-07T20:34:15.939Z,21.80
2018-05-07T20:36:47.823Z,21.80
2018-05-07T20:39:19.738Z,21.80
2018-05-07T20:41:52.403Z,21.70
2018-05-07T20:44:24.359Z,21.70
2018-05-07T20:46:56.281Z,21.60
2018-05-07T20:49:28.166Z,21.60
2018-05-07T20:52:00.066Z,21.50
2018-05-07T20:54:32.716Z,21.40
2018-05-07T20:57:04.922Z,21.40
2018-05-07T20:59:36.800Z,21.30
